createdAt,value
2018-10-16T00:01:17.847Z,93.40
2018-10-16T00:06:16.124Z,93.70
2018-10-16T00:20:25.141Z,94.30
2018-10-16T00:22:54.505Z,92.90
2018-10-16T00:27:53.080Z,94.30
2018-10-16T00:30:22.373Z,93.90
2018-10-16T00:32:51.700Z,92.30
2018-10-16T00:35:20.981Z,90.60
2018-10-16T00:42:49.092Z,94.20
2018-10-16T00:52:46.210Z,92.20
2018-10-16T00:57:44.568Z,94.00
2018-10-16T01:00:15.185Z,94.10
2018-10-16T01:02:44.841Z,91.00
2018-10-16T01:05:14.522Z,94.30
2018-10-16T01:07:44.039Z,91.50
2018-10-16T01:12:43.274Z,94.40
2018-10-16T01:15:13.131Z,94.10
2018-10-16T01:17:42.579Z,94.40
2018-10-16T01:20:13.370Z,94.50
2018-10-16T01:22:43.108Z,94.40
2018-10-16T01:27:43.549Z,94.90
2018-10-16T01:30:12.835Z,95.10
2018-10-16T01:35:12.414Z,94.70
2018-10-16T01:42:41.641Z,94.30
2018-10-16T01:45:11.593Z,94.30
2018-10-16T01:47:40.926Z,94.60
2018-10-16T01:50:12.037Z,94.30
2018-10-16T01:52:41.436Z,94.60
2018-10-16T01:55:10.719Z,94.60
2018-10-16T01:57:41.108Z,94.60
2018-10-16T02:00:11.389Z,94.80
2018-10-16T02:02:40.945Z,95.00
2018-10-16T02:05:10.272Z,94.90
2018-10-16T02:10:09.046Z,95.20
2018-10-16T02:12:38.411Z,95.50
2018-10-16T02:15:08.504Z,95.80
2018-10-16T02:17:38.749Z,96.30
2018-10-16T02:20:08.431Z,96.60
2018-10-16T02:22:38.229Z,96.70
2018-10-16T02:25:08.180Z,96.90
2018-10-16T02:37:34.989Z,97.20
2018-10-16T02:45:03.052Z,97.80
2018-10-16T02:47:32.420Z,94.00
2018-10-16T02:50:01.729Z,98.20
2018-10-16T02:52:31.063Z,98.10
2018-10-16T02:55:00.351Z,98.30
2018-10-16T03:00:43.688Z,98.40
2018-10-16T03:05:42.177Z,98.10
2018-10-16T03:10:40.689Z,98.60
2018-10-16T03:15:39.455Z,98.70
2018-10-16T03:18:08.760Z,98.60
2018-10-16T03:23:07.166Z,98.60
2018-10-16T03:25:37.888Z,99.00
2018-10-16T03:28:07.261Z,98.80
2018-10-16T03:35:34.778Z,98.20
2018-10-16T03:40:33.188Z,98.50
2018-10-16T03:43:03.903Z,98.60
2018-10-16T03:45:33.296Z,98.80
2018-10-16T03:48:02.791Z,98.80
2018-10-16T03:50:32.156Z,98.90
2018-10-16T03:53:01.936Z,98.80
2018-10-16T03:55:31.373Z,98.90
2018-10-16T03:58:00.767Z,99.20
2018-10-16T04:00:30.174Z,99.10
2018-10-16T04:05:28.530Z,99.40
2018-10-16T04:12:55.755Z,99.60
2018-10-16T04:15:25.029Z,99.70
2018-10-16T04:17:54.227Z,99.90
2018-10-16T04:27:51.488Z,99.90
2018-10-16T04:30:20.698Z,99.70
2018-10-16T04:35:18.830Z,95.50
2018-10-16T04:40:16.985Z,95.60
2018-10-16T04:45:15.138Z,99.90
2018-10-16T04:47:44.315Z,99.90
2018-10-16T04:50:13.488Z,96.50
2018-10-16T04:52:42.689Z,99.90
2018-10-16T04:57:40.848Z,99.90
2018-10-16T05:00:10.394Z,99.90
2018-10-16T05:07:43.346Z,99.90
2018-10-16T05:15:26.963Z,99.90
2018-10-16T05:20:25.487Z,99.90
2018-10-16T05:25:24.839Z,99.90
2018-10-16T05:27:54.164Z,99.90
2018-10-16T05:30:23.334Z,96.40
2018-10-16T05:32:52.680Z,99.90
2018-10-16T05:35:21.880Z,99.90
2018-10-16T05:42:49.019Z,99.90
2018-10-16T05:45:18.230Z,99.90
2018-10-16T05:47:47.507Z,96.40
2018-10-16T05:50:16.655Z,99.90
2018-10-16T05:52:45.929Z,99.90
2018-10-16T05:55:15.117Z,99.90
2018-10-16T05:57:44.319Z,99.90
2018-10-16T06:00:30.533Z,99.90
2018-10-16T06:02:59.738Z,99.90
2018-10-16T06:05:28.992Z,99.90
2018-10-16T06:07:58.316Z,99.90
2018-10-16T06:12:56.436Z,99.90
2018-10-16T06:15:25.624Z,99.90
2018-10-16T06:17:54.816Z,99.90
2018-10-16T06:20:23.999Z,99.90
2018-10-16T06:22:53.225Z,99.90
2018-10-16T06:25:22.422Z,99.90
2018-10-16T06:27:51.660Z,99.90
2018-10-16T06:32:49.774Z,99.80
2018-10-16T06:35:18.959Z,99.90
2018-10-16T06:40:17.076Z,99.90
2018-10-16T06:42:46.260Z,99.90
2018-10-16T06:45:15.498Z,99.90
2018-10-16T06:47:44.724Z,99.50
2018-10-16T06:50:13.926Z,99.50
2018-10-16T06:52:43.134Z,99.40
2018-10-16T06:55:12.367Z,99.60
2018-10-16T06:57:41.642Z,99.30
2018-10-16T07:02:39.863Z,98.90
2018-10-16T07:05:09.151Z,99.20
2018-10-16T07:07:38.315Z,96.40
2018-10-16T07:15:07.022Z,99.20
2018-10-16T07:17:36.127Z,99.30
2018-10-16T07:20:06.904Z,99.00
2018-10-16T07:22:36.105Z,95.20
2018-10-16T07:25:06.598Z,98.90
2018-10-16T07:30:05.454Z,98.40
2018-10-16T07:32:34.614Z,98.20
2018-10-16T07:35:04.337Z,97.90
2018-10-16T07:40:02.469Z,98.10
2018-10-16T07:47:29.578Z,98.20
2018-10-16T07:49:58.788Z,96.50
2018-10-16T07:52:28.055Z,98.00
2018-10-16T07:54:57.238Z,97.50
2018-10-16T07:57:26.449Z,97.40
2018-10-16T07:59:55.661Z,96.30
2018-10-16T08:07:22.740Z,98.10
2018-10-16T08:09:51.998Z,93.70
2018-10-16T08:14:50.114Z,97.70
2018-10-16T08:17:19.327Z,97.60
2018-10-16T08:19:48.486Z,97.30
2018-10-16T08:22:17.673Z,97.10
2018-10-16T08:24:46.943Z,97.30
2018-10-16T08:27:16.123Z,96.80
2018-10-16T08:29:45.297Z,92.80
2018-10-16T08:32:14.475Z,96.50
2018-10-16T08:34:43.648Z,95.30
2018-10-16T08:37:18.451Z,95.80
2018-10-16T08:43:43.452Z,95.90
2018-10-16T08:46:29.975Z,95.50
2018-10-16T08:49:16.202Z,95.50
2018-10-16T08:51:51.522Z,95.60
2018-10-16T08:56:49.915Z,95.40
2018-10-16T08:59:19.197Z,95.00
2018-10-16T09:01:48.373Z,94.70
2018-10-16T09:04:17.583Z,93.00
2018-10-16T09:06:46.873Z,95.60
2018-10-16T09:14:17.161Z,94.00
2018-10-16T09:16:46.287Z,95.60
2018-10-16T09:19:15.578Z,95.00
2018-10-16T09:21:44.755Z,95.50
2018-10-16T09:29:11.855Z,95.70
2018-10-16T09:36:38.881Z,91.40
2018-10-16T09:41:39.235Z,94.30
2018-10-16T09:46:37.596Z,94.20
2018-10-16T09:49:06.998Z,94.80
2018-10-16T09:51:36.194Z,94.00
2018-10-16T09:56:34.591Z,94.30
2018-10-16T09:59:03.783Z,94.60
2018-10-16T10:01:38.149Z,94.30
2018-10-16T10:06:36.364Z,94.20
2018-10-16T10:14:06.933Z,93.30
2018-10-16T10:16:36.201Z,92.70
2018-10-16T10:19:06.501Z,92.70
2018-10-16T10:21:35.709Z,93.20
2018-10-16T10:26:33.774Z,90.30
2018-10-16T10:29:03.141Z,89.90
2018-10-16T10:31:32.292Z,93.60
2018-10-16T10:36:30.608Z,92.20
2018-10-16T10:38:59.757Z,93.30
2018-10-16T10:41:28.929Z,93.90
2018-10-16T10:43:58.119Z,93.90
2018-10-16T10:46:27.245Z,93.10
2018-10-16T10:51:25.535Z,95.90
2018-10-16T10:53:54.457Z,94.60
2018-10-16T10:56:23.583Z,93.50
2018-10-16T10:58:52.798Z,95.20
2018-10-16T11:01:21.916Z,94.20
2018-10-16T11:06:20.313Z,94.10
2018-10-16T11:16:16.253Z,94.50
2018-10-16T11:18:45.381Z,93.60
2018-10-16T11:21:14.571Z,93.50
2018-10-16T11:26:12.574Z,93.70
2018-10-16T11:28:41.705Z,94.40
2018-10-16T11:33:39.794Z,93.50
2018-10-16T11:38:37.841Z,93.00
2018-10-16T11:41:07.029Z,93.20
2018-10-16T11:43:36.141Z,93.00
2018-10-16T11:46:05.853Z,93.10
2018-10-16T11:53:42.889Z,93.10
2018-10-16T11:58:40.943Z,92.70
2018-10-16T12:01:10.209Z,92.70
2018-10-16T12:06:08.641Z,93.00
2018-10-16T12:08:37.757Z,91.30
2018-10-16T12:13:36.318Z,93.60
2018-10-16T12:16:05.473Z,94.10
2018-10-16T12:18:56.973Z,94.50
2018-10-16T12:21:26.201Z,95.20
2018-10-16T12:23:55.349Z,97.40
2018-10-16T12:26:24.458Z,96.00
2018-10-16T12:28:53.608Z,96.10
2018-10-16T12:31:22.814Z,95.50
2018-10-16T12:33:51.932Z,95.60
2018-10-16T12:36:21.206Z,95.30
2018-10-16T12:38:50.687Z,95.20
2018-10-16T12:41:19.798Z,91.30
2018-10-16T12:43:48.992Z,94.80
2018-10-16T12:46:18.099Z,94.10
2018-10-16T12:48:47.270Z,93.70
2018-10-16T12:51:16.591Z,93.70
2018-10-16T12:53:45.677Z,93.50
2018-10-16T12:56:14.916Z,93.50
2018-10-16T12:58:43.995Z,91.50
2018-10-16T13:03:42.108Z,93.70
2018-10-16T13:08:40.043Z,93.20
2018-10-16T13:11:09.172Z,93.40
2018-10-16T13:13:38.278Z,93.40
2018-10-16T13:16:07.472Z,93.80
2018-10-16T13:18:36.526Z,94.20
2018-10-16T13:21:06.028Z,94.60
2018-10-16T13:23:41.979Z,94.50
2018-10-16T13:26:11.078Z,94.50
2018-10-16T13:28:40.241Z,95.90
2018-10-16T13:31:09.350Z,90.30
2018-10-16T13:33:38.491Z,94.00
2018-10-16T13:36:07.593Z,93.50
2018-10-16T13:38:36.706Z,94.50
2018-10-16T13:41:06.045Z,94.30
2018-10-16T13:48:33.493Z,95.80
2018-10-16T13:51:02.823Z,96.20
2018-10-16T13:56:00.973Z,96.50
2018-10-16T13:58:30.097Z,96.40
2018-10-16T14:03:28.125Z,96.70
2018-10-16T14:08:26.923Z,94.30
2018-10-16T14:13:25.053Z,98.30
2018-10-16T14:15:54.168Z,98.70
2018-10-16T14:20:52.254Z,98.60
2018-10-16T14:23:21.399Z,98.60
2018-10-16T14:25:50.652Z,98.40
2018-10-16T14:28:19.874Z,98.50
2018-10-16T14:30:48.977Z,95.30
2018-10-16T14:33:18.117Z,99.00
2018-10-16T14:40:45.086Z,99.90
2018-10-16T14:43:14.249Z,99.90
2018-10-16T14:45:43.361Z,99.90
2018-10-16T14:48:12.559Z,99.90
2018-10-16T14:50:41.634Z,99.90
2018-10-16T14:55:39.750Z,99.90
2018-10-16T14:58:08.959Z,99.90
2018-10-16T15:00:38.069Z,99.90
2018-10-16T15:03:07.250Z,99.90
2018-10-16T15:05:36.388Z,99.90
2018-10-16T15:08:05.580Z,99.90
2018-10-16T15:10:34.796Z,99.90
2018-10-16T15:15:32.821Z,99.90
2018-10-16T15:18:01.937Z,99.90
2018-10-16T15:20:31.076Z,99.90
2018-10-16T15:25:29.118Z,99.90
2018-10-16T15:27:58.304Z,99.90
2018-10-16T15:30:27.514Z,99.90
2018-10-16T15:32:56.754Z,99.90
2018-10-16T15:35:25.875Z,99.90
2018-10-16T15:40:24.011Z,99.90
2018-10-16T15:42:53.189Z,99.90
2018-10-16T15:45:22.325Z,99.90
2018-10-16T15:47:51.478Z,99.90
2018-10-16T15:50:20.629Z,99.90
2018-10-16T15:52:50.849Z,99.90
2018-10-16T15:55:20.020Z,99.90
2018-10-16T15:57:49.256Z,99.90
2018-10-16T16:00:18.321Z,99.90
2018-10-16T16:05:16.387Z,99.90
2018-10-16T16:07:45.525Z,99.90
2018-10-16T16:10:15.884Z,99.90
2018-10-16T16:12:45.127Z,99.90
2018-10-16T16:15:14.763Z,99.90
2018-10-16T16:17:44.604Z,99.90
2018-10-16T16:20:14.724Z,99.90
2018-10-16T16:22:44.165Z,99.90
2018-10-16T16:25:14.324Z,99.90
2018-10-16T16:27:43.450Z,99.90
2018-10-16T16:30:15.936Z,99.90
2018-10-16T16:32:45.093Z,99.90
2018-10-16T16:35:14.311Z,99.90
2018-10-16T16:37:43.441Z,99.90
2018-10-16T16:40:13.874Z,99.90
2018-10-16T16:45:12.599Z,99.90
2018-10-16T16:47:41.742Z,99.90
2018-10-16T16:50:12.201Z,99.90
2018-10-16T16:52:41.941Z,99.90
2018-10-16T16:55:12.769Z,99.90
2018-10-16T16:57:41.962Z,99.90
2018-10-16T17:07:41.618Z,99.90
2018-10-16T17:10:10.865Z,99.90
2018-10-16T17:12:40.733Z,99.90
2018-10-16T17:15:13.635Z,99.90
2018-10-16T17:17:43.156Z,99.90
2018-10-16T17:20:12.622Z,99.90
2018-10-16T17:22:41.762Z,99.90
2018-10-16T17:25:13.868Z,99.90
2018-10-16T17:27:43.706Z,99.90
2018-10-16T17:37:43.163Z,99.90
2018-10-16T17:42:42.795Z,99.90
2018-10-16T17:45:13.345Z,99.90
2018-10-16T17:50:14.174Z,99.90
2018-10-16T17:52:43.378Z,99.90
2018-10-16T17:55:16.245Z,99.90
2018-10-16T17:57:45.466Z,99.90
2018-10-16T18:07:44.574Z,99.90
2018-10-16T18:12:42.726Z,99.90
2018-10-16T18:15:13.094Z,99.90
2018-10-16T18:17:42.914Z,99.90
2018-10-16T18:20:14.090Z,99.90
2018-10-16T18:22:43.576Z,99.90
2018-10-16T18:25:12.834Z,99.90
2018-10-16T18:27:42.836Z,99.90
2018-10-16T18:40:10.804Z,99.90
2018-10-16T18:45:11.575Z,99.90
2018-10-16T18:47:40.746Z,99.90
2018-10-16T18:50:11.314Z,99.90
2018-10-16T18:52:40.505Z,99.90
2018-10-16T18:55:11.221Z,99.90
2018-10-16T18:57:41.074Z,99.90
2018-10-16T19:00:13.402Z,99.90
2018-10-16T19:07:41.449Z,99.90
2018-10-16T19:15:11.510Z,99.90
2018-10-16T19:17:40.669Z,99.90
2018-10-16T19:20:11.436Z,99.90
2018-10-16T19:25:10.787Z,99.90
2018-10-16T19:27:40.054Z,99.90
2018-10-16T19:30:10.641Z,99.90
2018-10-16T19:32:39.844Z,99.90
2018-10-16T19:40:08.155Z,99.90
2018-10-16T19:42:37.325Z,99.90
2018-10-16T19:45:07.563Z,99.90
2018-10-16T19:50:06.190Z,99.90
2018-10-16T19:52:35.353Z,99.90
2018-10-16T19:55:04.679Z,99.90
2018-10-16T20:02:31.762Z,99.90
2018-10-16T20:05:00.931Z,99.90
2018-10-16T20:07:30.114Z,99.90
2018-10-16T20:09:59.258Z,99.90
2018-10-16T20:14:57.376Z,99.90
2018-10-16T20:19:55.507Z,99.90
2018-10-16T20:22:24.710Z,99.90
2018-10-16T20:25:00.340Z,99.90
2018-10-16T20:27:29.576Z,99.90
2018-10-16T20:39:54.524Z,99.90
2018-10-16T20:42:23.738Z,99.90
2018-10-16T20:47:21.844Z,99.90
2018-10-16T20:49:51.015Z,99.90
2018-10-16T20:52:20.181Z,99.90
2018-10-16T20:54:49.398Z,99.90
2018-10-16T20:57:18.554Z,99.90
2018-10-16T21:09:43.940Z,99.90
2018-10-16T21:12:13.080Z,99.90
2018-10-16T21:17:11.170Z,99.90
2018-10-16T21:22:09.263Z,99.90
2018-10-16T21:32:08.278Z,99.90
2018-10-16T21:37:06.439Z,99.90
2018-10-16T21:42:04.624Z,99.90
2018-10-16T21:44:33.824Z,99.90
2018-10-16T21:49:31.904Z,99.90
2018-10-16T21:52:01.047Z,99.90
2018-10-16T22:04:34.689Z,99.90
2018-10-16T22:09:32.824Z,99.90
2018-10-16T22:14:30.948Z,99.90
2018-10-16T22:17:00.086Z,99.90
2018-10-16T22:21:59.232Z,99.90
2018-10-16T22:24:28.401Z,99.90
2018-10-16T22:31:59.308Z,99.90
2018-10-16T22:36:57.437Z,99.90
2018-10-16T22:39:26.568Z,99.90
2018-10-16T22:41:55.717Z,99.90
2018-10-16T22:44:24.894Z,99.90
2018-10-16T22:46:54.081Z,99.90
2018-10-16T22:49:23.301Z,99.90
2018-10-16T22:51:52.449Z,99.90
2018-10-16T22:54:21.589Z,99.90
2018-10-16T22:56:50.704Z,99.90
2018-10-16T22:59:19.893Z,99.90
2018-10-16T23:04:20.284Z,99.90
2018-10-16T23:09:18.708Z,99.90
2018-10-16T23:11:47.837Z,99.90
2018-10-16T23:14:17.009Z,99.90
2018-10-16T23:16:46.124Z,99.90
2018-10-16T23:21:44.199Z,99.90
2018-10-16T23:24:13.326Z,99.90
2018-10-16T23:29:11.410Z,99.90
2018-10-16T23:31:40.496Z,99.90
2018-10-16T23:41:40.985Z,99.90
2018-10-16T23:46:39.564Z,99.90
2018-10-16T23:49:09.788Z,99.90
2018-10-16T23:51:39.128Z,99.90
2018-10-16T23:56:39.264Z,99.90
